sensor_id;sensor_type;location;lat;lon;timestamp;pressure;altitude;pressure_sealevel;temperature;humidity
31225;BME280;17847;31.524;74.366;2023-01-31T00:00:36;99581.97;;;11.63;88.79
31225;BME280;17847;31.524;74.366;2023-01-31T00:03:25;99580.94;;;11.64;88.69
31225;BME280;17847;31.524;74.366;2023-01-31T00:06:20;99582.78;;;11.64;89.13
31225;BME280;17847;31.524;74.366;2023-01-31T00:09:11;99578.66;;;11.61;88.74
31225;BME280;17847;31.524;74.366;2023-01-31T00:11:53;99584.44;;;11.65;89.17
31225;BME280;17847;31.524;74.366;2023-01-31T00:14:42;99588.06;;;11.72;89.30
31225;BME280;17847;31.524;74.366;2023-01-31T00:17:31;99594.13;;;11.81;88.97
31225;BME280;17847;31.524;74.366;2023-01-31T00:20:26;99578.97;;;11.66;88.58
31225;BME280;17847;31.524;74.366;2023-01-31T00:23:09;99584.09;;;11.68;88.31
31225;BME280;17847;31.524;74.366;2023-01-31T00:26:07;99574.72;;;11.57;88.59
31225;BME280;17847;31.524;74.366;2023-01-31T00:28:51;99581.00;;;11.56;88.43
31225;BME280;17847;31.524;74.366;2023-01-31T00:31:41;99580.69;;;11.59;88.39
31225;BME280;17847;31.524;74.366;2023-01-31T00:34:23;99573.00;;;11.64;88.59
31225;BME280;17847;31.524;74.366;2023-01-31T00:37:12;99581.69;;;11.58;88.00
31225;BME280;17847;31.524;74.366;2023-01-31T00:39:54;99575.19;;;11.61;88.05
31225;BME280;17847;31.524;74.366;2023-01-31T00:42:45;99571.53;;;11.62;87.69
31225;BME280;17847;31.524;74.366;2023-01-31T00:45:27;99572.13;;;11.49;87.29
31225;BME280;17847;31.524;74.366;2023-01-31T00:48:17;99581.13;;;11.40;87.73
31225;BME280;17847;31.524;74.366;2023-01-31T00:51:00;99582.13;;;11.39;87.54
31225;BME280;17847;31.524;74.366;2023-01-31T00:53:48;99583.72;;;11.48;87.67
31225;BME280;17847;31.524;74.366;2023-01-31T00:56:31;99578.06;;;11.51;87.42
31225;BME280;17847;31.524;74.366;2023-01-31T00:59:20;99574.31;;;11.46;87.55
31225;BME280;17847;31.524;74.366;2023-01-31T01:02:03;99587.63;;;11.60;87.26
31225;BME280;17847;31.524;74.366;2023-01-31T01:04:51;99592.16;;;11.52;86.68
31225;BME280;17847;31.524;74.366;2023-01-31T01:07:33;99585.78;;;11.38;86.97
31225;BME280;17847;31.524;74.366;2023-01-31T01:10:23;99589.69;;;11.50;86.81
31225;BME280;17847;31.524;74.366;2023-01-31T01:13:06;99591.09;;;11.61;86.42
31225;BME280;17847;31.524;74.366;2023-01-31T01:15:55;99603.72;;;11.59;86.65
31225;BME280;17847;31.524;74.366;2023-01-31T01:18:44;99601.31;;;11.49;86.15
31225;BME280;17847;31.524;74.366;2023-01-31T01:21:42;99599.72;;;11.63;85.42
31225;BME280;17847;31.524;74.366;2023-01-31T01:24:24;99602.66;;;11.68;85.22
31225;BME280;17847;31.524;74.366;2023-01-31T01:27:14;99598.50;;;11.74;84.57
31225;BME280;17847;31.524;74.366;2023-01-31T01:29:56;99601.84;;;11.67;84.47
31225;BME280;17847;31.524;74.366;2023-01-31T01:32:46;99604.25;;;11.54;84.17
31225;BME280;17847;31.524;74.366;2023-01-31T01:35:30;99605.03;;;11.63;84.53
31225;BME280;17847;31.524;74.366;2023-01-31T01:38:19;99603.38;;;11.62;83.82
31225;BME280;17847;31.524;74.366;2023-01-31T01:41:04;99604.28;;;11.46;83.61
31225;BME280;17847;31.524;74.366;2023-01-31T01:44:02;99605.13;;;11.47;84.57
31225;BME280;17847;31.524;74.366;2023-01-31T01:46:42;99611.09;;;11.49;84.31
31225;BME280;17847;31.524;74.366;2023-01-31T01:49:38;99614.81;;;11.62;83.99
31225;BME280;17847;31.524;74.366;2023-01-31T01:52:14;99622.34;;;11.51;83.98
31225;BME280;17847;31.524;74.366;2023-01-31T01:58:18;99628.31;;;11.53;83.72
31225;BME280;17847;31.524;74.366;2023-01-31T02:01:17;99625.25;;;11.33;84.06
31225;BME280;17847;31.524;74.366;2023-01-31T02:03:53;99631.38;;;11.42;84.27
31225;BME280;17847;31.524;74.366;2023-01-31T02:06:49;99634.03;;;11.34;83.78
31225;BME280;17847;31.524;74.366;2023-01-31T02:12:25;99633.22;;;11.33;84.26
31225;BME280;17847;31.524;74.366;2023-01-31T02:15:08;99624.41;;;11.10;84.23
31225;BME280;17847;31.524;74.366;2023-01-31T02:17:58;99637.72;;;11.24;83.72
31225;BME280;17847;31.524;74.366;2023-01-31T02:24:21;99636.59;;;11.27;84.61
31225;BME280;17847;31.524;74.366;2023-01-31T02:27:34;99630.66;;;11.17;84.54
31225;BME280;17847;31.524;74.366;2023-01-31T02:42:32;99655.66;;;11.53;84.39
31225;BME280;17847;31.524;74.366;2023-01-31T02:48:51;99657.00;;;11.49;83.88
31225;BME280;17847;31.524;74.366;2023-01-31T02:51:42;99663.97;;;11.50;83.99
31225;BME280;17847;31.524;74.366;2023-01-31T02:54:59;99668.56;;;11.56;84.23
31225;BME280;17847;31.524;74.366;2023-01-31T02:58:11;99677.75;;;11.68;83.96
31225;BME280;17847;31.524;74.366;2023-01-31T03:00:57;99675.28;;;11.75;84.06
31225;BME280;17847;31.524;74.366;2023-01-31T03:03:48;99680.59;;;11.98;82.84
31225;BME280;17847;31.524;74.366;2023-01-31T03:10:02;99678.25;;;12.03;82.28
31225;BME280;17847;31.524;74.366;2023-01-31T03:12:49;99703.19;;;12.17;82.21
31225;BME280;17847;31.524;74.366;2023-01-31T03:15:52;99712.84;;;12.32;81.96
31225;BME280;17847;31.524;74.366;2023-01-31T03:19:17;99721.41;;;12.57;81.15
31225;BME280;17847;31.524;74.366;2023-01-31T03:22:22;99734.44;;;12.52;80.95
31225;BME280;17847;31.524;74.366;2023-01-31T03:25:09;99735.53;;;12.57;79.97
31225;BME280;17847;31.524;74.366;2023-01-31T03:28:10;99740.63;;;12.82;79.82
31225;BME280;17847;31.524;74.366;2023-01-31T03:31:04;99751.31;;;13.11;78.59
31225;BME280;17847;31.524;74.366;2023-01-31T03:34:04;99752.78;;;13.28;77.90
31225;BME280;17847;31.524;74.366;2023-01-31T03:40:03;99767.84;;;13.86;75.01
31225;BME280;17847;31.524;74.366;2023-01-31T03:45:44;99767.94;;;13.93;73.26
31225;BME280;17847;31.524;74.366;2023-01-31T03:48:32;99769.16;;;14.12;73.07
31225;BME280;17847;31.524;74.366;2023-01-31T03:51:27;99769.38;;;14.31;71.93
31225;BME280;17847;31.524;74.366;2023-01-31T03:54:17;99777.53;;;14.45;72.23
31225;BME280;17847;31.524;74.366;2023-01-31T03:57:14;99778.06;;;14.61;71.04
31225;BME280;17847;31.524;74.366;2023-01-31T03:59:59;99781.75;;;14.81;70.73
31225;BME280;17847;31.524;74.366;2023-01-31T04:02:57;99789.72;;;15.09;70.73
31225;BME280;17847;31.524;74.366;2023-01-31T04:05:46;99791.72;;;15.56;69.02
31225;BME280;17847;31.524;74.366;2023-01-31T04:08:36;99790.25;;;16.01;68.01
31225;BME280;17847;31.524;74.366;2023-01-31T04:11:20;99787.22;;;16.17;66.28
31225;BME280;17847;31.524;74.366;2023-01-31T04:14:12;99798.31;;;16.14;66.58
31225;BME280;17847;31.524;74.366;2023-01-31T04:16:54;99797.44;;;16.07;67.15
31225;BME280;17847;31.524;74.366;2023-01-31T04:19:43;99799.38;;;16.33;67.14
31225;BME280;17847;31.524;74.366;2023-01-31T04:22:26;99811.41;;;16.64;66.41
31225;BME280;17847;31.524;74.366;2023-01-31T04:25:14;99817.38;;;16.79;65.72
31225;BME280;17847;31.524;74.366;2023-01-31T04:27:57;99818.13;;;17.45;64.50
31225;BME280;17847;31.524;74.366;2023-01-31T04:30:45;99825.56;;;17.36;63.35
31225;BME280;17847;31.524;74.366;2023-01-31T04:33:27;99831.38;;;18.04;62.97
31225;BME280;17847;31.524;74.366;2023-01-31T04:36:17;99842.41;;;17.83;61.78
31225;BME280;17847;31.524;74.366;2023-01-31T04:38:59;99832.94;;;17.74;62.40
31225;BME280;17847;31.524;74.366;2023-01-31T04:41:48;99842.44;;;18.21;59.94
31225;BME280;17847;31.524;74.366;2023-01-31T04:44:30;99834.13;;;18.35;61.38
31225;BME280;17847;31.524;74.366;2023-01-31T04:47:19;99844.22;;;18.33;59.26
31225;BME280;17847;31.524;74.366;2023-01-31T04:50:02;99847.22;;;18.50;60.38
31225;BME280;17847;31.524;74.366;2023-01-31T04:52:50;99844.19;;;18.40;59.64
31225;BME280;17847;31.524;74.366;2023-01-31T04:55:33;99831.53;;;19.10;59.19
31225;BME280;17847;31.524;74.366;2023-01-31T04:58:21;99829.41;;;18.94;57.61
31225;BME280;17847;31.524;74.366;2023-01-31T05:01:03;99819.34;;;18.89;58.05
31225;BME280;17847;31.524;74.366;2023-01-31T05:03:52;99818.94;;;19.10;58.49
31225;BME280;17847;31.524;74.366;2023-01-31T05:06:34;99818.31;;;19.08;57.42
31225;BME280;17847;31.524;74.366;2023-01-31T05:09:16;99819.94;;;19.59;55.86
31225;BME280;17847;31.524;74.366;2023-01-31T05:12:06;99825.94;;;19.36;56.23
31225;BME280;17847;31.524;74.366;2023-01-31T05:14:48;99822.56;;;19.41;57.98
31225;BME280;17847;31.524;74.366;2023-01-31T05:17:38;99824.00;;;20.16;56.03
31225;BME280;17847;31.524;74.366;2023-01-31T05:20:28;99815.81;;;19.74;55.97
31225;BME280;17847;31.524;74.366;2023-01-31T05:23:25;99809.91;;;19.84;56.65
31225;BME280;17847;31.524;74.366;2023-01-31T05:26:07;99807.16;;;19.91;56.05
31225;BME280;17847;31.524;74.366;2023-01-31T05:28:56;99804.66;;;20.07;55.11
31225;BME280;17847;31.524;74.366;2023-01-31T05:31:38;99796.50;;;20.14;55.13
31225;BME280;17847;31.524;74.366;2023-01-31T05:34:27;99789.16;;;19.91;55.42
31225;BME280;17847;31.524;74.366;2023-01-31T05:37:13;99776.31;;;20.23;54.94
31225;BME280;17847;31.524;74.366;2023-01-31T05:40:02;99792.09;;;20.49;54.90
31225;BME280;17847;31.524;74.366;2023-01-31T05:42:44;99788.47;;;20.44;54.37
31225;BME280;17847;31.524;74.366;2023-01-31T05:45:34;99785.03;;;20.67;55.54
31225;BME280;17847;31.524;74.366;2023-01-31T05:48:16;99781.94;;;20.63;55.75
31225;BME280;17847;31.524;74.366;2023-01-31T05:51:05;99785.09;;;20.60;53.45
31225;BME280;17847;31.524;74.366;2023-01-31T05:53:47;99777.78;;;20.37;55.08
31225;BME280;17847;31.524;74.366;2023-01-31T05:56:36;99769.72;;;20.37;54.89
31225;BME280;17847;31.524;74.366;2023-01-31T05:59:19;99767.19;;;20.54;54.79
31225;BME280;17847;31.524;74.366;2023-01-31T06:02:11;99767.44;;;20.52;54.60
31225;BME280;17847;31.524;74.366;2023-01-31T06:04:53;99765.47;;;20.94;54.98
31225;BME280;17847;31.524;74.366;2023-01-31T06:07:49;99773.56;;;20.71;55.43
31225;BME280;17847;31.524;74.366;2023-01-31T06:10:25;99765.09;;;20.68;55.34
31225;BME280;17847;31.524;74.366;2023-01-31T06:13:21;99760.88;;;20.72;54.54
31225;BME280;17847;31.524;74.366;2023-01-31T06:16:03;99755.47;;;20.48;53.97
31225;BME280;17847;31.524;74.366;2023-01-31T06:18:52;99756.03;;;21.15;53.63
31225;BME280;17847;31.524;74.366;2023-01-31T06:21:33;99747.34;;;21.25;53.80
31225;BME280;17847;31.524;74.366;2023-01-31T06:24:24;99748.16;;;20.90;53.57
31225;BME280;17847;31.524;74.366;2023-01-31T06:27:06;99741.22;;;21.52;52.57
31225;BME280;17847;31.524;74.366;2023-01-31T06:29:55;99744.66;;;21.25;52.25
31225;BME280;17847;31.524;74.366;2023-01-31T06:32:37;99746.63;;;20.83;54.81
31225;BME280;17847;31.524;74.366;2023-01-31T06:35:26;99738.19;;;21.02;53.80
31225;BME280;17847;31.524;74.366;2023-01-31T06:38:09;99735.53;;;21.14;52.78
31225;BME280;17847;31.524;74.366;2023-01-31T06:40:57;99735.75;;;21.01;52.54
31225;BME280;17847;31.524;74.366;2023-01-31T06:43:39;99723.91;;;20.90;53.10
31225;BME280;17847;31.524;74.366;2023-01-31T06:46:28;99731.31;;;21.18;52.14
31225;BME280;17847;31.524;74.366;2023-01-31T06:49:11;99724.03;;;20.84;51.61
31225;BME280;17847;31.524;74.366;2023-01-31T06:52:06;99714.09;;;20.84;52.64
31225;BME280;17847;31.524;74.366;2023-01-31T06:54:41;99719.13;;;21.27;52.50
31225;BME280;17847;31.524;74.366;2023-01-31T06:57:45;99720.97;;;21.38;50.83
31225;BME280;17847;31.524;74.366;2023-01-31T07:00:29;99722.75;;;21.10;51.89
31225;BME280;17847;31.524;74.366;2023-01-31T07:03:19;99709.63;;;21.25;51.03
31225;BME280;17847;31.524;74.366;2023-01-31T07:06:01;99708.81;;;20.89;51.34
31225;BME280;17847;31.524;74.366;2023-01-31T07:08:50;99699.53;;;21.08;52.29
31225;BME280;17847;31.524;74.366;2023-01-31T07:11:25;99685.63;;;21.00;51.65
31225;BME280;17847;31.524;74.366;2023-01-31T07:14:21;99683.16;;;20.98;50.87
31225;BME280;17847;31.524;74.366;2023-01-31T07:17:02;99678.25;;;20.84;51.32
31225;BME280;17847;31.524;74.366;2023-01-31T07:19:53;99670.63;;;21.04;51.55
31225;BME280;17847;31.524;74.366;2023-01-31T07:22:34;99662.31;;;20.94;51.42
31225;BME280;17847;31.524;74.366;2023-01-31T07:25:25;99650.56;;;21.12;52.28
31225;BME280;17847;31.524;74.366;2023-01-31T07:28:10;99650.28;;;20.73;51.00
31225;BME280;17847;31.524;74.366;2023-01-31T07:31:11;99637.50;;;20.92;52.20
31225;BME280;17847;31.524;74.366;2023-01-31T07:33:47;99638.78;;;20.89;50.62
31225;BME280;17847;31.524;74.366;2023-01-31T07:36:43;99630.50;;;20.79;50.33
31225;BME280;17847;31.524;74.366;2023-01-31T07:39:24;99632.59;;;20.89;50.75
31225;BME280;17847;31.524;74.366;2023-01-31T07:42:14;99626.75;;;20.45;50.86
31225;BME280;17847;31.524;74.366;2023-01-31T07:44:55;99615.31;;;20.61;52.07
31225;BME280;17847;31.524;74.366;2023-01-31T07:48:03;99608.25;;;20.84;50.93
31225;BME280;17847;31.524;74.366;2023-01-31T07:50:45;99604.59;;;20.90;50.06
31225;BME280;17847;31.524;74.366;2023-01-31T07:53:36;99597.81;;;20.76;51.07
31225;BME280;17847;31.524;74.366;2023-01-31T07:56:20;99597.22;;;20.85;50.60
31225;BME280;17847;31.524;74.366;2023-01-31T07:59:09;99600.16;;;20.72;50.04
31225;BME280;17847;31.524;74.366;2023-01-31T08:01:51;99597.38;;;20.67;48.59
31225;BME280;17847;31.524;74.366;2023-01-31T08:04:59;99596.59;;;20.43;50.90
31225;BME280;17847;31.524;74.366;2023-01-31T08:07:41;99587.78;;;20.59;50.15
31225;BME280;17847;31.524;74.366;2023-01-31T08:10:30;99575.16;;;20.48;50.20
31225;BME280;17847;31.524;74.366;2023-01-31T08:13:14;99583.47;;;20.47;51.60
31225;BME280;17847;31.524;74.366;2023-01-31T08:16:05;99577.75;;;20.43;51.21
31225;BME280;17847;31.524;74.366;2023-01-31T08:18:54;99570.00;;;20.58;51.41
31225;BME280;17847;31.524;74.366;2023-01-31T08:21:37;99561.25;;;20.51;52.61
31225;BME280;17847;31.524;74.366;2023-01-31T08:24:25;99564.59;;;20.58;51.37
31225;BME280;17847;31.524;74.366;2023-01-31T08:27:08;99560.06;;;20.47;51.16
31225;BME280;17847;31.524;74.366;2023-01-31T08:30:06;99553.28;;;20.45;49.83
31225;BME280;17847;31.524;74.366;2023-01-31T08:32:49;99565.00;;;20.39;51.20
31225;BME280;17847;31.524;74.366;2023-01-31T08:35:38;99556.91;;;20.39;51.77
31225;BME280;17847;31.524;74.366;2023-01-31T08:38:21;99556.09;;;20.61;51.05
31225;BME280;17847;31.524;74.366;2023-01-31T08:41:12;99551.59;;;20.67;50.41
31225;BME280;17847;31.524;74.366;2023-01-31T08:43:55;99559.47;;;20.45;50.56
31225;BME280;17847;31.524;74.366;2023-01-31T08:46:45;99555.81;;;20.28;51.02
31225;BME280;17847;31.524;74.366;2023-01-31T08:49:27;99548.47;;;20.24;50.64
31225;BME280;17847;31.524;74.366;2023-01-31T08:52:17;99540.78;;;20.39;49.87
31225;BME280;17847;31.524;74.366;2023-01-31T08:55:00;99538.75;;;20.23;50.54
31225;BME280;17847;31.524;74.366;2023-01-31T08:57:51;99537.13;;;20.22;50.96
31225;BME280;17847;31.524;74.366;2023-01-31T09:00:34;99533.25;;;20.29;52.13
31225;BME280;17847;31.524;74.366;2023-01-31T09:03:29;99522.59;;;20.23;49.97
31225;BME280;17847;31.524;74.366;2023-01-31T09:06:19;99527.53;;;20.14;50.72
31225;BME280;17847;31.524;74.366;2023-01-31T09:09:09;99525.66;;;20.03;50.40
31225;BME280;17847;31.524;74.366;2023-01-31T09:11:45;99524.25;;;19.89;50.73
31225;BME280;17847;31.524;74.366;2023-01-31T09:14:41;99522.84;;;19.86;52.03
31225;BME280;17847;31.524;74.366;2023-01-31T09:17:22;99519.00;;;19.82;52.00
31225;BME280;17847;31.524;74.366;2023-01-31T09:20:12;99519.31;;;19.74;52.00
31225;BME280;17847;31.524;74.366;2023-01-31T09:22:54;99507.38;;;19.70;51.56
31225;BME280;17847;31.524;74.366;2023-01-31T09:25:50;99513.94;;;19.62;52.45
31225;BME280;17847;31.524;74.366;2023-01-31T09:28:33;99508.91;;;19.66;52.03
31225;BME280;17847;31.524;74.366;2023-01-31T09:31:32;99502.59;;;19.84;52.39
31225;BME280;17847;31.524;74.366;2023-01-31T09:34:13;99500.75;;;19.84;51.71
31225;BME280;17847;31.524;74.366;2023-01-31T09:37:04;99509.50;;;19.80;51.30
31225;BME280;17847;31.524;74.366;2023-01-31T09:39:45;99513.69;;;19.64;51.96
31225;BME280;17847;31.524;74.366;2023-01-31T09:42:37;99498.88;;;19.73;51.00
31225;BME280;17847;31.524;74.366;2023-01-31T09:45:34;99493.50;;;19.85;50.39
31225;BME280;17847;31.524;74.366;2023-01-31T09:48:30;99490.22;;;19.83;50.39
31225;BME280;17847;31.524;74.366;2023-01-31T09:51:15;99489.03;;;19.79;51.20
31225;BME280;17847;31.524;74.366;2023-01-31T09:54:13;99475.94;;;19.70;50.20
31225;BME280;17847;31.524;74.366;2023-01-31T09:57:19;99482.03;;;19.66;50.46
31225;BME280;17847;31.524;74.366;2023-01-31T10:00:31;99481.75;;;19.44;50.51
31225;BME280;17847;31.524;74.366;2023-01-31T10:03:24;99483.03;;;19.42;50.72
31225;BME280;17847;31.524;74.366;2023-01-31T10:09:41;99474.34;;;19.28;49.67
31225;BME280;17847;31.524;74.366;2023-01-31T10:12:53;99465.47;;;19.27;51.30
31225;BME280;17847;31.524;74.366;2023-01-31T10:15:52;99459.00;;;19.17;49.46
31225;BME280;17847;31.524;74.366;2023-01-31T10:18:47;99468.81;;;19.11;50.82
31225;BME280;17847;31.524;74.366;2023-01-31T10:21:52;99472.44;;;19.17;51.48
31225;BME280;17847;31.524;74.366;2023-01-31T10:24:47;99471.03;;;19.14;51.89
31225;BME280;17847;31.524;74.366;2023-01-31T10:27:44;99464.34;;;19.05;51.09
31225;BME280;17847;31.524;74.366;2023-01-31T10:30:43;99472.47;;;18.99;50.89
31225;BME280;17847;31.524;74.366;2023-01-31T10:33:39;99466.53;;;18.97;50.10
31225;BME280;17847;31.524;74.366;2023-01-31T10:36:35;99457.50;;;18.91;50.75
31225;BME280;17847;31.524;74.366;2023-01-31T10:39:33;99460.56;;;18.95;52.09
31225;BME280;17847;31.524;74.366;2023-01-31T10:42:28;99473.41;;;18.93;51.17
31225;BME280;17847;31.524;74.366;2023-01-31T10:45:22;99458.00;;;19.00;50.48
31225;BME280;17847;31.524;74.366;2023-01-31T10:57:35;99467.84;;;18.76;52.83
31225;BME280;17847;31.524;74.366;2023-01-31T11:00:30;99458.22;;;18.68;53.25
31225;BME280;17847;31.524;74.366;2023-01-31T11:03:20;99461.53;;;18.70;53.12
31225;BME280;17847;31.524;74.366;2023-01-31T11:06:03;99454.97;;;18.66;53.53
31225;BME280;17847;31.524;74.366;2023-01-31T11:09:02;99455.66;;;18.62;52.96
31225;BME280;17847;31.524;74.366;2023-01-31T11:11:57;99461.31;;;18.54;52.26
31225;BME280;17847;31.524;74.366;2023-01-31T11:15:03;99456.09;;;18.40;52.10
31225;BME280;17847;31.524;74.366;2023-01-31T11:17:42;99449.53;;;18.36;51.96
31225;BME280;17847;31.524;74.366;2023-01-31T11:20:46;99444.59;;;18.33;51.70
31225;BME280;17847;31.524;74.366;2023-01-31T11:23:31;99443.25;;;18.24;52.46
31225;BME280;17847;31.524;74.366;2023-01-31T11:26:30;99438.00;;;18.18;52.85
31225;BME280;17847;31.524;74.366;2023-01-31T11:29:15;99433.22;;;18.20;53.46
31225;BME280;17847;31.524;74.366;2023-01-31T11:32:17;99432.31;;;18.08;53.12
31225;BME280;17847;31.524;74.366;2023-01-31T11:35:19;99427.03;;;18.01;53.14
31225;BME280;17847;31.524;74.366;2023-01-31T11:38:19;99423.81;;;17.92;54.68
31225;BME280;17847;31.524;74.366;2023-01-31T11:41:26;99418.97;;;17.83;55.14
31225;BME280;17847;31.524;74.366;2023-01-31T11:44:17;99411.59;;;17.78;54.35
31225;BME280;17847;31.524;74.366;2023-01-31T11:47:10;99417.09;;;17.65;54.00
31225;BME280;17847;31.524;74.366;2023-01-31T11:50:21;99424.06;;;17.66;53.78
31225;BME280;17847;31.524;74.366;2023-01-31T11:56:20;99417.50;;;17.62;55.06
31225;BME280;17847;31.524;74.366;2023-01-31T11:59:02;99411.00;;;17.51;54.70
31225;BME280;17847;31.524;74.366;2023-01-31T12:01:59;99406.88;;;17.49;55.16
31225;BME280;17847;31.524;74.366;2023-01-31T12:04:41;99417.31;;;17.39;54.62
31225;BME280;17847;31.524;74.366;2023-01-31T12:07:48;99417.41;;;17.26;54.74
31225;BME280;17847;31.524;74.366;2023-01-31T12:10:49;99410.03;;;17.21;54.84
31225;BME280;17847;31.524;74.366;2023-01-31T12:13:49;99398.53;;;17.14;55.50
31225;BME280;17847;31.524;74.366;2023-01-31T12:16:27;99406.81;;;17.13;57.26
31225;BME280;17847;31.524;74.366;2023-01-31T12:19:51;99409.53;;;16.99;56.73
31225;BME280;17847;31.524;74.366;2023-01-31T12:39:02;99401.09;;;16.71;59.93
31225;BME280;17847;31.524;74.366;2023-01-31T12:45:26;99399.31;;;16.52;60.75
31225;BME280;17847;31.524;74.366;2023-01-31T12:51:48;99398.72;;;16.50;60.82
31225;BME280;17847;31.524;74.366;2023-01-31T12:54:46;99393.75;;;16.53;61.54
31225;BME280;17847;31.524;74.366;2023-01-31T12:57:40;99399.34;;;16.45;61.47
31225;BME280;17847;31.524;74.366;2023-01-31T13:00:43;99399.34;;;16.45;62.47
31225;BME280;17847;31.524;74.366;2023-01-31T13:03:37;99408.66;;;16.36;62.33
31225;BME280;17847;31.524;74.366;2023-01-31T13:06:48;99402.66;;;16.41;62.79
31225;BME280;17847;31.524;74.366;2023-01-31T13:09:38;99408.84;;;16.41;62.37
31225;BME280;17847;31.524;74.366;2023-01-31T13:12:26;99413.75;;;16.38;63.05
31225;BME280;17847;31.524;74.366;2023-01-31T13:15:43;99407.56;;;16.50;63.02
31225;BME280;17847;31.524;74.366;2023-01-31T13:18:32;99404.88;;;16.50;62.93
31225;BME280;17847;31.524;74.366;2023-01-31T13:21:24;99414.00;;;16.36;63.47
31225;BME280;17847;31.524;74.366;2023-01-31T13:24:31;99416.72;;;16.23;63.90
31225;BME280;17847;31.524;74.366;2023-01-31T13:27:31;99419.59;;;16.28;64.38
31225;BME280;17847;31.524;74.366;2023-01-31T13:33:35;99429.06;;;16.17;64.23
31225;BME280;17847;31.524;74.366;2023-01-31T13:36:42;99431.16;;;16.02;65.45
31225;BME280;17847;31.524;74.366;2023-01-31T13:39:39;99440.84;;;15.90;65.86
31225;BME280;17847;31.524;74.366;2023-01-31T13:42:23;99441.88;;;15.89;65.63
31225;BME280;17847;31.524;74.366;2023-01-31T13:45:32;99441.06;;;15.82;65.50
31225;BME280;17847;31.524;74.366;2023-01-31T13:48:37;99448.88;;;15.90;65.70
31225;BME280;17847;31.524;74.366;2023-01-31T13:51:29;99447.03;;;15.91;65.30
31225;BME280;17847;31.524;74.366;2023-01-31T13:54:30;99443.13;;;15.87;65.16
31225;BME280;17847;31.524;74.366;2023-01-31T13:57:28;99450.94;;;15.82;65.87
31225;BME280;17847;31.524;74.366;2023-01-31T14:00:40;99457.50;;;15.92;65.30
31225;BME280;17847;31.524;74.366;2023-01-31T14:03:24;99450.94;;;15.82;65.99
31225;BME280;17847;31.524;74.366;2023-01-31T14:06:14;99466.56;;;15.78;65.91
31225;BME280;17847;31.524;74.366;2023-01-31T14:08:57;99462.66;;;15.74;65.71
31225;BME280;17847;31.524;74.366;2023-01-31T14:11:46;99469.66;;;15.62;65.76
31225;BME280;17847;31.524;74.366;2023-01-31T14:20:28;99482.56;;;15.58;67.29
31225;BME280;17847;31.524;74.366;2023-01-31T14:26:32;99480.09;;;15.44;67.57
31225;BME280;17847;31.524;74.366;2023-01-31T14:29:24;99480.28;;;15.42;67.94
31225;BME280;17847;31.524;74.366;2023-01-31T14:32:23;99475.97;;;15.41;67.98
31225;BME280;17847;31.524;74.366;2023-01-31T14:57:20;99480.88;;;15.18;69.25
31225;BME280;17847;31.524;74.366;2023-01-31T15:05:52;99503.63;;;15.07;68.53
31225;BME280;17847;31.524;74.366;2023-01-31T15:08:46;99503.41;;;15.02;68.88
31225;BME280;17847;31.524;74.366;2023-01-31T15:11:39;99508.75;;;14.96;69.24
31225;BME280;17847;31.524;74.366;2023-01-31T15:14:35;99511.63;;;14.94;69.51
31225;BME280;17847;31.524;74.366;2023-01-31T15:17:29;99517.34;;;14.91;69.25
31225;BME280;17847;31.524;74.366;2023-01-31T15:20:34;99517.34;;;14.98;69.42
31225;BME280;17847;31.524;74.366;2023-01-31T15:23:21;99520.25;;;15.03;69.10
31225;BME280;17847;31.524;74.366;2023-01-31T15:26:13;99515.75;;;15.03;69.42
31225;BME280;17847;31.524;74.366;2023-01-31T15:28:59;99518.59;;;14.95;69.13
31225;BME280;17847;31.524;74.366;2023-01-31T15:32:23;99512.84;;;14.98;70.01
31225;BME280;17847;31.524;74.366;2023-01-31T15:38:04;99507.88;;;14.82;70.28
31225;BME280;17847;31.524;74.366;2023-01-31T15:41:19;99509.97;;;14.87;70.48
31225;BME280;17847;31.524;74.366;2023-01-31T15:44:22;99519.34;;;14.82;70.77
31225;BME280;17847;31.524;74.366;2023-01-31T15:47:19;99518.50;;;14.69;70.92
31225;BME280;17847;31.524;74.366;2023-01-31T15:50:19;99516.84;;;14.74;71.15
31225;BME280;17847;31.524;74.366;2023-01-31T15:53:11;99509.22;;;14.65;70.88
31225;BME280;17847;31.524;74.366;2023-01-31T15:56:01;99513.53;;;14.59;71.08
31225;BME280;17847;31.524;74.366;2023-01-31T15:58:47;99521.28;;;14.54;71.28
31225;BME280;17847;31.524;74.366;2023-01-31T16:01:37;99526.63;;;14.61;71.28
31225;BME280;17847;31.524;74.366;2023-01-31T16:04:19;99519.06;;;14.58;71.65
31225;BME280;17847;31.524;74.366;2023-01-31T16:07:18;99520.22;;;14.49;71.41
31225;BME280;17847;31.524;74.366;2023-01-31T16:10:04;99523.72;;;14.43;71.74
31225;BME280;17847;31.524;74.366;2023-01-31T16:12:54;99524.91;;;14.40;72.09
31225;BME280;17847;31.524;74.366;2023-01-31T16:15:36;99507.06;;;14.41;71.77
31225;BME280;17847;31.524;74.366;2023-01-31T16:18:27;99508.88;;;14.33;71.68
31225;BME280;17847;31.524;74.366;2023-01-31T16:21:37;99505.25;;;14.41;71.84
31225;BME280;17847;31.524;74.366;2023-01-31T16:24:21;99501.97;;;14.46;71.43
31225;BME280;17847;31.524;74.366;2023-01-31T16:27:14;99501.09;;;14.38;72.16
31225;BME280;17847;31.524;74.366;2023-01-31T16:29:59;99500.81;;;14.27;72.12
31225;BME280;17847;31.524;74.366;2023-01-31T16:32:48;99507.97;;;14.20;72.28
31225;BME280;17847;31.524;74.366;2023-01-31T16:35:32;99499.81;;;14.28;72.93
31225;BME280;17847;31.524;74.366;2023-01-31T16:38:25;99505.06;;;14.15;72.84
31225;BME280;17847;31.524;74.366;2023-01-31T16:41:09;99499.69;;;14.08;73.31
31225;BME280;17847;31.524;74.366;2023-01-31T16:43:59;99504.19;;;14.08;73.21
31225;BME280;17847;31.524;74.366;2023-01-31T16:46:44;99501.06;;;13.98;73.64
31225;BME280;17847;31.524;74.366;2023-01-31T16:49:36;99497.66;;;13.82;73.82